createdAt,value
2022-11-23T00:01:35.038Z,31.17
2022-11-23T00:04:04.637Z,32.60
2022-11-23T00:06:32.810Z,29.77
2022-11-23T00:09:00.397Z,29.83
2022-11-23T00:11:28.959Z,29.37
2022-11-23T00:13:57.923Z,25.23
2022-11-23T00:16:27.658Z,29.07
2022-11-23T00:18:55.738Z,28.47
2022-11-23T00:21:24.189Z,31.37
2022-11-23T00:23:52.447Z,30.60
2022-11-23T00:26:20.913Z,29.90
2022-11-23T00:28:48.695Z,32.37
2022-11-23T00:31:19.223Z,29.23
2022-11-23T00:33:49.718Z,30.23
2022-11-23T00:36:17.719Z,34.53
2022-11-23T00:38:45.678Z,36.27
2022-11-23T00:41:15.064Z,37.63
2022-11-23T00:43:42.914Z,35.47
2022-11-23T00:46:14.417Z,40.30
2022-11-23T00:48:43.814Z,35.43
2022-11-23T00:51:15.549Z,36.33
2022-11-23T00:53:43.192Z,37.00
2022-11-23T00:56:11.319Z,33.80
2022-11-23T00:58:39.640Z,39.37
2022-11-23T01:01:08.824Z,36.93
2022-11-23T01:03:37.277Z,31.43
2022-11-23T01:06:08.334Z,29.50
2022-11-23T01:08:36.144Z,30.60
2022-11-23T01:11:04.895Z,36.77
2022-11-23T01:13:32.584Z,29.13
2022-11-23T01:16:00.281Z,36.23
2022-11-23T01:18:28.075Z,32.27
2022-11-23T01:20:56.012Z,35.07
2022-11-23T01:23:24.981Z,32.40
2022-11-23T01:25:56.781Z,35.43
2022-11-23T01:28:24.773Z,32.70
2022-11-23T01:30:52.396Z,35.57
2022-11-23T01:33:19.990Z,30.37
2022-11-23T01:35:47.623Z,35.00
2022-11-23T01:38:18.148Z,33.03
2022-11-23T01:40:47.502Z,35.63
2022-11-23T01:43:16.938Z,37.93
2022-11-23T01:45:45.758Z,37.03
2022-11-23T01:48:17.565Z,34.80
2022-11-23T01:50:46.403Z,27.83
2022-11-23T01:53:14.029Z,35.30
2022-11-23T01:55:41.884Z,31.13
2022-11-23T01:58:11.478Z,33.50
2022-11-23T02:00:39.043Z,30.60
2022-11-23T02:03:07.250Z,33.30
2022-11-23T02:05:36.912Z,32.23
2022-11-23T02:08:05.056Z,32.10
2022-11-23T02:10:32.832Z,31.77
2022-11-23T02:13:04.664Z,35.37
2022-11-23T02:15:33.656Z,32.70
2022-11-23T02:18:03.371Z,35.17
2022-11-23T02:20:31.107Z,33.73
2022-11-23T02:23:08.296Z,32.80
2022-11-23T02:25:44.627Z,31.57
2022-11-23T02:28:16.643Z,36.37
2022-11-23T02:30:45.384Z,40.93
2022-11-23T02:33:12.966Z,35.27
2022-11-23T02:35:49.407Z,38.57
2022-11-23T02:38:17.374Z,38.73
2022-11-23T02:40:45.204Z,35.73
2022-11-23T02:43:14.828Z,42.53
2022-11-23T02:45:46.554Z,32.63
2022-11-23T02:48:14.168Z,30.97
2022-11-23T02:50:41.761Z,34.50
2022-11-23T02:53:09.344Z,34.30
2022-11-23T02:55:37.088Z,52.20
2022-11-23T02:58:04.888Z,39.57
2022-11-23T03:00:34.289Z,41.27
2022-11-23T03:03:02.786Z,62.87
2022-11-23T03:05:30.430Z,44.87
2022-11-23T03:07:58.083Z,50.33
2022-11-23T03:10:25.966Z,39.20
2022-11-23T03:12:55.336Z,41.70
2022-11-23T03:15:23.106Z,43.37
2022-11-23T03:17:52.329Z,47.00
2022-11-23T03:20:20.142Z,45.70
2022-11-23T03:22:47.730Z,53.30
2022-11-23T03:25:15.433Z,34.57
2022-11-23T03:27:43.011Z,46.43
2022-11-23T03:30:11.514Z,34.20
2022-11-23T03:32:39.090Z,50.23
2022-11-23T03:35:08.785Z,36.27
2022-11-23T03:37:36.358Z,34.27
2022-11-23T03:40:04.477Z,39.47
2022-11-23T03:42:32.050Z,30.53
2022-11-23T03:44:59.623Z,34.23
2022-11-23T03:47:27.255Z,35.63
2022-11-23T03:49:54.818Z,30.60
2022-11-23T03:52:23.745Z,34.47
2022-11-23T03:54:51.393Z,35.37
2022-11-23T03:57:19.044Z,33.20
2022-11-23T03:59:46.638Z,34.57
2022-11-23T04:02:14.215Z,32.37
2022-11-23T04:04:41.829Z,33.87
2022-11-23T04:07:09.423Z,34.00
2022-11-23T04:09:38.370Z,33.13
2022-11-23T04:12:06.473Z,30.63
2022-11-23T04:14:34.023Z,33.73
2022-11-23T04:17:02.243Z,32.80
2022-11-23T04:19:30.298Z,37.63
2022-11-23T04:21:59.398Z,38.83
2022-11-23T04:24:26.984Z,34.57
2022-11-23T04:26:55.940Z,31.87
2022-11-23T04:29:23.547Z,35.13
2022-11-23T04:31:51.136Z,34.30
2022-11-23T04:34:18.821Z,32.73
2022-11-23T04:36:46.416Z,30.23
2022-11-23T04:39:14.389Z,29.03
2022-11-23T04:41:41.986Z,35.83
2022-11-23T04:44:11.083Z,33.00
2022-11-23T04:46:38.679Z,31.50
2022-11-23T04:49:06.307Z,32.80
2022-11-23T04:51:33.889Z,34.37
2022-11-23T04:54:01.472Z,33.23
2022-11-23T04:56:29.019Z,36.83
2022-11-23T04:58:56.603Z,34.27
2022-11-23T05:01:25.596Z,36.93
2022-11-23T05:03:53.300Z,33.43
2022-11-23T05:06:20.858Z,37.60
2022-11-23T05:08:48.779Z,29.73
2022-11-23T05:11:16.372Z,31.43
2022-11-23T05:13:43.949Z,34.07
2022-11-23T05:16:11.524Z,32.00
2022-11-23T05:18:40.475Z,41.60
2022-11-23T05:21:08.058Z,31.30
2022-11-23T05:23:35.634Z,33.20
2022-11-23T05:26:03.255Z,29.30
2022-11-23T05:28:40.517Z,43.13
2022-11-23T05:31:09.183Z,34.93
2022-11-23T05:33:37.139Z,34.23
2022-11-23T05:36:06.785Z,37.03
2022-11-23T05:38:34.408Z,34.30
2022-11-23T05:41:02.023Z,32.27
2022-11-23T05:43:29.575Z,36.20
2022-11-23T05:46:00.000Z,32.53
2022-11-23T05:48:27.597Z,29.90
2022-11-23T05:50:55.190Z,38.67
2022-11-23T05:53:24.147Z,38.80
2022-11-23T05:55:51.723Z,38.00
2022-11-23T05:58:19.303Z,33.60
2022-11-23T06:00:46.913Z,35.13
2022-11-23T06:03:17.621Z,36.17
2022-11-23T06:05:47.952Z,43.73
2022-11-23T06:08:15.555Z,35.57
2022-11-23T06:10:44.558Z,41.73
2022-11-23T06:13:12.174Z,45.63
2022-11-23T06:15:39.717Z,34.73
2022-11-23T06:18:07.406Z,33.80
2022-11-23T06:20:35.006Z,33.47
2022-11-23T06:23:02.619Z,32.50
2022-11-23T06:25:30.271Z,31.47
2022-11-23T06:28:00.195Z,34.60
2022-11-23T06:30:29.391Z,36.33
2022-11-23T06:32:57.094Z,36.43
2022-11-23T06:35:25.180Z,34.27
2022-11-23T06:37:54.510Z,35.47
2022-11-23T06:40:22.475Z,32.80
2022-11-23T06:42:50.015Z,36.87
2022-11-23T06:45:18.967Z,37.80
2022-11-23T06:47:46.553Z,38.43
2022-11-23T06:50:15.237Z,35.77
2022-11-23T06:52:42.805Z,32.20
2022-11-23T06:55:10.539Z,36.07
2022-11-23T06:57:38.083Z,32.77
2022-11-23T07:00:06.822Z,33.00
2022-11-23T07:02:35.728Z,30.70
2022-11-23T07:05:03.282Z,31.73
2022-11-23T07:07:30.852Z,30.50
2022-11-23T07:10:01.580Z,31.00
2022-11-23T07:12:31.424Z,31.43
2022-11-23T07:14:58.962Z,28.43
2022-11-23T07:17:26.510Z,29.60
2022-11-23T07:19:55.389Z,26.47
2022-11-23T07:22:22.932Z,28.07
2022-11-23T07:24:50.486Z,26.90
2022-11-23T07:27:20.459Z,23.23
2022-11-23T07:29:48.098Z,25.63
2022-11-23T07:32:15.741Z,25.80
2022-11-23T07:34:43.270Z,28.17
2022-11-23T07:37:12.235Z,24.30
2022-11-23T07:39:56.792Z,23.73
2022-11-23T07:42:33.663Z,22.23
2022-11-23T07:45:03.764Z,26.40
2022-11-23T07:47:31.359Z,25.23
2022-11-23T07:49:59.085Z,26.13
2022-11-23T07:52:28.025Z,22.77
2022-11-23T07:54:55.630Z,23.10
2022-11-23T07:57:23.160Z,25.00
2022-11-23T07:59:50.719Z,22.67
2022-11-23T08:02:18.343Z,24.83
2022-11-23T08:04:45.950Z,23.70
2022-11-23T08:07:13.759Z,22.83
2022-11-23T08:09:42.684Z,22.73
2022-11-23T08:12:10.264Z,21.50
2022-11-23T08:14:37.797Z,25.83
2022-11-23T08:17:05.341Z,24.17
2022-11-23T08:19:32.907Z,21.40
2022-11-23T08:22:00.444Z,20.33
2022-11-23T08:24:27.971Z,22.07
2022-11-23T08:26:57.383Z,22.20
2022-11-23T08:29:25.310Z,22.33
2022-11-23T08:31:53.014Z,23.20
2022-11-23T08:34:20.575Z,22.90
2022-11-23T08:36:49.047Z,21.80
2022-11-23T08:39:17.457Z,20.33
2022-11-23T08:41:44.988Z,21.67
2022-11-23T08:44:13.889Z,22.07
2022-11-23T08:46:41.475Z,21.43
2022-11-23T08:49:09.236Z,22.33
2022-11-23T08:51:36.928Z,23.20
2022-11-23T08:54:04.563Z,23.27
2022-11-23T08:56:32.122Z,22.60
2022-11-23T08:58:59.719Z,23.13
2022-11-23T09:01:28.674Z,22.83
2022-11-23T09:04:08.760Z,25.90
2022-11-23T09:06:36.494Z,22.83
2022-11-23T09:09:04.464Z,21.67
2022-11-23T09:11:32.074Z,22.20
2022-11-23T09:13:59.840Z,24.67
2022-11-23T09:16:33.659Z,21.70
2022-11-23T09:19:01.712Z,20.63
2022-11-23T09:21:33.235Z,20.87
2022-11-23T09:24:00.895Z,22.03
2022-11-23T09:26:28.594Z,21.53
2022-11-23T09:28:56.170Z,25.57
2022-11-23T09:31:26.788Z,24.17
2022-11-23T09:33:55.731Z,22.20
2022-11-23T09:36:23.780Z,23.93
2022-11-23T09:38:56.623Z,22.57
2022-11-23T09:41:42.735Z,22.73
2022-11-23T09:44:15.696Z,22.80
2022-11-23T09:46:53.284Z,24.97
2022-11-23T09:49:23.633Z,23.40
2022-11-23T09:51:51.684Z,22.17
2022-11-23T09:54:26.306Z,23.70
2022-11-23T09:57:01.366Z,25.60
2022-11-23T09:59:38.090Z,20.83
2022-11-23T10:02:06.098Z,24.43
2022-11-23T10:04:36.462Z,20.93
2022-11-23T10:07:13.848Z,22.67
2022-11-23T10:09:47.304Z,20.63
2022-11-23T10:12:39.788Z,23.97
2022-11-23T10:15:14.096Z,23.10
2022-11-23T10:18:17.011Z,22.87
2022-11-23T10:20:52.924Z,21.40
2022-11-23T10:23:28.582Z,20.70
2022-11-23T10:25:56.170Z,22.07
2022-11-23T10:28:24.399Z,21.27
2022-11-23T10:30:57.626Z,23.73
2022-11-23T10:33:30.993Z,21.87
2022-11-23T10:35:59.874Z,21.40
2022-11-23T10:38:28.582Z,21.60
2022-11-23T10:41:04.067Z,21.87
2022-11-23T10:43:35.533Z,22.43
2022-11-23T10:46:26.381Z,21.23
2022-11-23T10:48:54.655Z,22.23
2022-11-23T10:51:29.710Z,20.27
2022-11-23T10:54:04.972Z,21.03
2022-11-23T10:56:33.853Z,22.07
2022-11-23T10:59:01.675Z,20.90
2022-11-23T11:01:30.615Z,21.53
2022-11-23T11:04:03.712Z,19.93
2022-11-23T11:06:35.998Z,20.73
2022-11-23T11:09:10.786Z,19.23
2022-11-23T11:11:46.782Z,20.47
2022-11-23T11:14:16.469Z,21.73
2022-11-23T11:16:49.384Z,18.87
2022-11-23T11:19:27.600Z,18.97
2022-11-23T11:21:56.946Z,18.63
2022-11-23T11:24:29.802Z,20.50
2022-11-23T11:27:00.777Z,18.20
2022-11-23T11:29:38.700Z,18.20
2022-11-23T11:32:10.261Z,19.53
2022-11-23T11:34:43.845Z,18.27
2022-11-23T11:37:26.620Z,18.97
2022-11-23T11:39:57.104Z,17.27
2022-11-23T11:42:28.799Z,14.83
2022-11-23T11:44:58.995Z,17.23
2022-11-23T11:47:31.176Z,18.70
2022-11-23T11:50:01.004Z,16.70
2022-11-23T11:52:34.046Z,17.03
2022-11-23T11:55:09.084Z,16.93
2022-11-23T11:57:39.998Z,16.60
2022-11-23T12:00:13.376Z,17.20
2022-11-23T12:02:44.225Z,17.20
2022-11-23T12:05:16.908Z,19.07
2022-11-23T12:07:53.893Z,16.80
2022-11-23T12:10:27.648Z,18.33
2022-11-23T12:12:56.459Z,18.07
2022-11-23T12:18:42.493Z,17.40
2022-11-23T12:21:19.149Z,17.20
2022-11-23T12:23:53.621Z,18.07
2022-11-23T12:26:25.573Z,16.53
2022-11-23T12:29:12.639Z,18.13
2022-11-23T12:31:44.064Z,16.30
2022-11-23T12:34:28.235Z,16.07
2022-11-23T12:37:10.481Z,16.70
2022-11-23T12:40:12.964Z,17.87
2022-11-23T12:42:43.779Z,16.43
2022-11-23T12:45:23.410Z,17.23
2022-11-23T12:47:58.185Z,15.83
2022-11-23T12:50:31.600Z,16.17
2022-11-23T12:53:04.212Z,16.03
2022-11-23T12:55:40.144Z,17.23
2022-11-23T12:58:13.165Z,16.33
2022-11-23T13:00:43.335Z,18.70
2022-11-23T13:03:32.999Z,16.87
2022-11-23T13:06:37.460Z,20.60
2022-11-23T13:09:27.940Z,17.27
2022-11-23T13:12:18.969Z,16.57
2022-11-23T13:14:52.507Z,16.47
2022-11-23T13:17:27.799Z,16.87
2022-11-23T13:20:10.185Z,17.27
2022-11-23T13:22:39.400Z,17.70
2022-11-23T13:25:22.528Z,18.00
2022-11-23T13:28:00.734Z,15.77
2022-11-23T13:30:59.231Z,16.10
2022-11-23T13:33:35.769Z,16.30
2022-11-23T13:36:10.472Z,16.63
2022-11-23T13:38:42.136Z,15.97
2022-11-23T13:41:56.013Z,15.17
2022-11-23T13:44:27.033Z,15.43
2022-11-23T13:47:09.021Z,16.63
2022-11-23T13:49:42.002Z,16.60
2022-11-23T13:52:36.241Z,17.90
2022-11-23T13:55:10.128Z,17.13
2022-11-23T13:57:38.983Z,16.00
2022-11-23T14:00:43.853Z,16.00
2022-11-23T14:03:49.103Z,16.57
2022-11-23T14:06:23.015Z,18.07
2022-11-23T14:08:53.689Z,17.83
2022-11-23T14:11:23.626Z,20.83
2022-11-23T14:13:55.142Z,18.63
2022-11-23T14:16:35.829Z,18.77
2022-11-23T14:19:08.066Z,19.07
2022-11-23T14:21:43.790Z,17.93
2022-11-23T14:24:48.338Z,18.53
2022-11-23T14:27:46.892Z,19.73
2022-11-23T14:30:42.061Z,20.90
2022-11-23T14:33:24.303Z,16.67
2022-11-23T14:35:59.032Z,18.60
2022-11-23T14:38:51.177Z,23.00
2022-11-23T14:41:20.364Z,15.97
2022-11-23T14:43:48.224Z,16.70
2022-11-23T14:46:19.773Z,16.43
2022-11-23T14:48:47.744Z,17.53
2022-11-23T14:51:18.316Z,15.60
2022-11-23T14:53:49.458Z,15.57
2022-11-23T14:56:24.474Z,17.40
2022-11-23T14:58:52.337Z,17.10
2022-11-23T15:01:22.151Z,17.60
2022-11-23T15:03:57.716Z,19.87
2022-11-23T15:06:28.435Z,16.80
2022-11-23T15:09:05.147Z,17.87
2022-11-23T15:11:38.263Z,16.90
2022-11-23T15:14:18.572Z,17.00
2022-11-23T15:16:46.144Z,17.23
2022-11-23T15:19:21.079Z,19.90
2022-11-23T15:21:49.415Z,18.37
2022-11-23T15:24:26.324Z,20.17
2022-11-23T15:26:54.503Z,29.10
2022-11-23T15:29:34.370Z,43.67
2022-11-23T15:34:50.732Z,21.30
2022-11-23T15:37:19.302Z,22.20
2022-11-23T15:39:48.778Z,21.70
2022-11-23T15:42:20.964Z,20.27
2022-11-23T15:44:51.533Z,18.73
2022-11-23T15:47:27.286Z,20.90
2022-11-23T15:49:59.714Z,20.60
2022-11-23T15:52:29.549Z,20.77
2022-11-23T15:55:07.514Z,19.47
2022-11-23T15:57:37.146Z,19.40
2022-11-23T16:00:06.732Z,21.60
2022-11-23T16:02:34.934Z,19.10
2022-11-23T16:05:12.449Z,23.97
2022-11-23T16:07:51.708Z,22.10
2022-11-23T16:10:22.123Z,25.83
2022-11-23T16:12:51.133Z,23.47
2022-11-23T16:15:37.607Z,23.13
2022-11-23T16:18:08.133Z,22.97
2022-11-23T16:20:35.767Z,27.43
2022-11-23T16:23:05.208Z,27.33
2022-11-23T16:25:35.269Z,28.53
2022-11-23T16:28:04.585Z,33.23
2022-11-23T16:30:37.560Z,28.53
2022-11-23T16:33:05.212Z,34.23
2022-11-23T16:35:32.999Z,37.47
2022-11-23T16:38:00.563Z,35.10
2022-11-23T16:40:28.105Z,37.33
2022-11-23T16:42:57.126Z,25.77
2022-11-23T16:45:24.749Z,26.83
2022-11-23T16:47:54.067Z,27.10
2022-11-23T16:50:22.100Z,35.35
2022-11-23T16:52:49.682Z,29.53
2022-11-23T16:55:17.678Z,27.57
2022-11-23T16:57:45.533Z,26.17
2022-11-23T17:00:16.900Z,25.63
2022-11-23T17:02:44.538Z,26.50
2022-11-23T17:05:17.712Z,28.03
2022-11-23T17:07:45.636Z,28.43
2022-11-23T17:10:14.202Z,29.17
2022-11-23T17:12:47.333Z,25.83
2022-11-23T17:15:16.608Z,27.70
2022-11-23T17:17:44.130Z,27.67
2022-11-23T17:20:13.545Z,31.73
2022-11-23T17:22:41.193Z,26.57
2022-11-23T17:25:14.422Z,25.50
2022-11-23T17:27:43.647Z,24.27
2022-11-23T17:30:14.591Z,28.63
2022-11-23T17:32:43.903Z,27.67
2022-11-23T17:35:11.533Z,25.20
2022-11-23T17:37:39.100Z,24.37
2022-11-23T17:40:10.737Z,31.50
2022-11-23T17:42:38.268Z,24.73
2022-11-23T17:45:06.491Z,25.13
2022-11-23T17:47:34.251Z,24.23
2022-11-23T17:50:03.771Z,26.20
2022-11-23T17:52:31.302Z,23.17
2022-11-23T17:54:58.858Z,23.53
2022-11-23T17:57:27.851Z,27.63
2022-11-23T17:59:59.270Z,25.17
2022-11-23T18:02:29.452Z,23.30
2022-11-23T18:04:58.351Z,25.00
2022-11-23T18:07:27.294Z,24.33
2022-11-23T18:09:55.203Z,24.40
2022-11-23T18:12:22.801Z,26.63
2022-11-23T18:14:50.364Z,24.33
2022-11-23T18:17:18.840Z,28.67
2022-11-23T18:19:46.544Z,26.60
2022-11-23T18:22:14.076Z,27.70
2022-11-23T18:24:43.026Z,25.30
2022-11-23T18:27:10.592Z,26.03
2022-11-23T18:29:40.137Z,22.70
2022-11-23T18:32:08.484Z,28.40
2022-11-23T18:34:36.121Z,27.20
2022-11-23T18:37:03.636Z,31.33
2022-11-23T18:39:31.443Z,25.00
2022-11-23T18:42:05.512Z,27.23
2022-11-23T18:44:33.584Z,27.73
2022-11-23T18:47:01.137Z,28.97
2022-11-23T18:49:28.688Z,25.83
2022-11-23T18:51:56.339Z,27.27
2022-11-23T18:54:23.918Z,29.40
2022-11-23T18:56:51.473Z,28.97
2022-11-23T18:59:42.463Z,26.67
2022-11-23T19:02:09.922Z,31.00
2022-11-23T19:04:38.633Z,29.60
2022-11-23T19:07:06.235Z,29.87
2022-11-23T19:09:34.695Z,31.40
2022-11-23T19:12:02.567Z,26.93
2022-11-23T19:14:38.956Z,31.47
2022-11-23T19:17:06.540Z,34.83
2022-11-23T19:19:34.287Z,31.47
2022-11-23T19:22:02.296Z,38.23
2022-11-23T19:24:29.998Z,33.87
2022-11-23T19:26:57.534Z,29.63
2022-11-23T19:29:27.237Z,33.87
2022-11-23T19:31:56.196Z,26.73
2022-11-23T19:34:31.903Z,30.87
2022-11-23T19:36:59.645Z,25.97
2022-11-23T19:39:27.177Z,26.13
2022-11-23T19:41:54.710Z,29.63
2022-11-23T19:44:22.482Z,30.73
2022-11-23T19:46:50.155Z,30.03
2022-11-23T19:49:19.079Z,31.27
2022-11-23T19:51:50.946Z,31.23
2022-11-23T19:54:18.483Z,29.50
2022-11-23T19:56:46.073Z,32.53
2022-11-23T19:59:14.196Z,47.10
2022-11-23T20:01:41.812Z,51.07
2022-11-23T20:04:10.794Z,31.03
2022-11-23T20:06:42.437Z,27.30
2022-11-23T20:09:11.741Z,36.87
2022-11-23T20:11:40.660Z,32.37
2022-11-23T20:14:08.472Z,39.90
2022-11-23T20:16:36.633Z,33.07
2022-11-23T20:19:06.452Z,31.67
2022-11-23T20:21:35.248Z,34.27
2022-11-23T20:24:06.054Z,33.77
2022-11-23T20:26:34.234Z,33.40
2022-11-23T20:29:02.061Z,39.43
2022-11-23T20:31:30.723Z,39.23
2022-11-23T20:33:58.458Z,33.23
2022-11-23T20:36:27.452Z,30.30
2022-11-23T20:38:55.758Z,34.00
2022-11-23T20:41:26.325Z,32.07
2022-11-23T20:43:55.873Z,39.10
2022-11-23T20:46:38.564Z,39.67
2022-11-23T20:49:11.472Z,43.63
2022-11-23T20:51:39.014Z,41.20
2022-11-23T20:54:06.967Z,47.23
2022-11-23T20:56:35.952Z,40.03
2022-11-23T20:59:04.622Z,37.10
2022-11-23T21:01:32.627Z,36.90
2022-11-23T21:04:00.498Z,35.97
2022-11-23T21:06:28.932Z,33.47
2022-11-23T21:08:56.737Z,34.57
2022-11-23T21:11:43.788Z,36.50
2022-11-23T21:14:17.940Z,30.57
2022-11-23T21:16:52.676Z,32.87
2022-11-23T21:19:21.932Z,29.43
2022-11-23T21:21:49.803Z,35.57
2022-11-23T21:24:17.650Z,32.60
2022-11-23T21:26:45.367Z,35.53
2022-11-23T21:29:14.533Z,30.53
2022-11-23T21:31:43.755Z,31.37
2022-11-23T21:34:17.927Z,35.57
2022-11-23T21:36:45.547Z,33.30
2022-11-23T21:39:13.899Z,33.53
2022-11-23T21:41:41.738Z,49.53
2022-11-23T21:44:09.978Z,32.53
2022-11-23T21:46:40.244Z,35.47
2022-11-23T21:49:09.043Z,31.57
2022-11-23T21:51:37.783Z,29.90
2022-11-23T21:54:07.068Z,32.93
2022-11-23T21:56:34.738Z,30.97
2022-11-23T21:59:02.426Z,38.17
2022-11-23T22:01:31.396Z,35.67
2022-11-23T22:04:02.163Z,34.90
2022-11-23T22:06:30.464Z,34.07
2022-11-23T22:08:59.710Z,35.77
2022-11-23T22:11:28.435Z,32.57
2022-11-23T22:13:57.308Z,29.73
2022-11-23T22:16:26.275Z,32.97
2022-11-23T22:18:55.921Z,33.80
2022-11-23T22:21:27.079Z,32.97
2022-11-23T22:23:54.846Z,30.83
2022-11-23T22:26:22.888Z,28.73
2022-11-23T22:28:52.391Z,30.93
2022-11-23T22:31:21.863Z,31.27
2022-11-23T22:33:49.871Z,27.77
2022-11-23T22:36:18.932Z,32.33
2022-11-23T22:38:48.160Z,32.03
2022-11-23T22:41:17.571Z,29.00
2022-11-23T22:43:45.398Z,33.83
2022-11-23T22:46:14.238Z,31.63
2022-11-23T22:48:42.897Z,29.10
2022-11-23T22:51:12.229Z,30.30
2022-11-23T22:53:44.566Z,30.50
2022-11-23T22:56:15.214Z,32.77
2022-11-23T22:58:44.404Z,31.30
2022-11-23T23:01:13.670Z,27.97
2022-11-23T23:03:42.069Z,30.67
2022-11-23T23:06:15.767Z,27.83
2022-11-23T23:08:43.390Z,23.13
2022-11-23T23:11:11.416Z,23.63
2022-11-23T23:13:40.573Z,25.70
2022-11-23T23:16:10.876Z,21.43
2022-11-23T23:18:38.678Z,19.83
2022-11-23T23:21:10.718Z,17.03
2022-11-23T23:23:38.668Z,16.93
2022-11-23T23:26:06.338Z,12.90
2022-11-23T23:28:34.322Z,13.83
2022-11-23T23:31:04.733Z,15.20
2022-11-23T23:33:33.328Z,15.87
2022-11-23T23:36:04.370Z,17.60
2022-11-23T23:38:32.160Z,16.73
2022-11-23T23:40:59.800Z,18.57
2022-11-23T23:43:27.626Z,15.80
2022-11-23T23:45:58.064Z,12.83
2022-11-23T23:48:29.440Z,12.80
2022-11-23T23:50:57.308Z,12.77
2022-11-23T23:53:25.153Z,13.20
2022-11-23T23:55:56.812Z,13.13
2022-11-23T23:58:24.396Z,12.90
